createdAt,value
2022-08-07T00:02:39.939Z,40.60
2022-08-07T00:05:00.360Z,40.80
2022-08-07T00:07:28.865Z,41.10
2022-08-07T00:10:26.156Z,41.20
2022-08-07T00:13:00.294Z,41.20
2022-08-07T00:15:37.768Z,41.20
2022-08-07T00:18:19.401Z,41.30
2022-08-07T00:20:50.403Z,41.40
2022-08-07T00:23:21.393Z,41.60
2022-08-07T00:25:52.494Z,41.50
2022-08-07T00:28:33.561Z,41.50
2022-08-07T00:31:05.934Z,41.70
2022-08-07T00:33:35.601Z,41.80
2022-08-07T00:36:06.363Z,41.90
2022-08-07T00:38:36.732Z,42.00
2022-08-07T00:41:09.935Z,41.90
2022-08-07T00:44:01.714Z,41.90
2022-08-07T00:46:32.877Z,41.90
2022-08-07T00:49:03.008Z,41.90
2022-08-07T00:51:57.538Z,42.00
2022-08-07T00:54:22.393Z,42.30
2022-08-07T00:56:51.128Z,42.20
2022-08-07T00:59:35.515Z,42.30
2022-08-07T01:02:05.821Z,42.50
2022-08-07T01:04:43.024Z,42.50
2022-08-07T01:07:14.020Z,42.60
2022-08-07T01:10:06.557Z,42.80
2022-08-07T01:12:31.381Z,42.80
2022-08-07T01:15:00.988Z,42.70
2022-08-07T01:17:30.412Z,42.80
2022-08-07T01:20:05.524Z,43.00
2022-08-07T01:22:36.811Z,43.30
2022-08-07T01:25:40.338Z,43.20
2022-08-07T01:27:56.238Z,43.30
2022-08-07T01:30:27.249Z,43.10
2022-08-07T01:32:58.288Z,43.30
2022-08-07T01:35:26.705Z,43.30
2022-08-07T01:38:25.628Z,43.30
2022-08-07T01:40:56.579Z,43.30
2022-08-07T01:43:25.942Z,43.40
2022-08-07T01:45:55.537Z,43.50
2022-08-07T01:48:30.384Z,43.60
2022-08-07T01:51:24.662Z,43.60
2022-08-07T01:54:11.802Z,43.80
2022-08-07T01:56:49.786Z,43.80
2022-08-07T01:59:31.127Z,43.80
2022-08-07T02:02:07.027Z,43.80
2022-08-07T02:04:56.148Z,44.30
2022-08-07T02:07:44.667Z,43.70
2022-08-07T02:10:25.639Z,43.70
2022-08-07T02:12:54.850Z,44.00
2022-08-07T02:15:28.281Z,43.70
2022-08-07T02:17:59.798Z,44.00
2022-08-07T02:20:31.390Z,44.00
2022-08-07T02:23:04.134Z,44.10
2022-08-07T02:26:31.341Z,44.30
2022-08-07T02:28:29.811Z,44.50
2022-08-07T02:31:00.197Z,44.30
2022-08-07T02:34:01.912Z,44.30
2022-08-07T02:36:33.049Z,44.40
2022-08-07T02:39:16.066Z,44.30
2022-08-07T02:41:54.400Z,44.40
2022-08-07T02:44:27.521Z,45.20
2022-08-07T02:47:02.774Z,44.60
2022-08-07T02:49:56.252Z,44.60
2022-08-07T02:52:32.024Z,44.70
2022-08-07T02:55:04.525Z,45.00
2022-08-07T02:57:47.629Z,45.00
2022-08-07T03:00:18.265Z,45.10
2022-08-07T03:02:54.444Z,45.10
2022-08-07T03:05:24.596Z,45.20
2022-08-07T03:08:05.301Z,45.20
2022-08-07T03:10:41.004Z,45.20
2022-08-07T03:13:19.706Z,45.10
2022-08-07T03:15:56.243Z,45.20
2022-08-07T03:18:34.554Z,45.10
2022-08-07T03:21:08.312Z,45.10
2022-08-07T03:24:20.999Z,45.20
2022-08-07T03:26:31.119Z,45.30
2022-08-07T03:29:03.008Z,45.20
2022-08-07T03:31:42.262Z,45.40
2022-08-07T03:34:18.727Z,45.40
2022-08-07T03:36:52.834Z,45.40
2022-08-07T03:39:46.240Z,45.40
2022-08-07T03:42:11.357Z,45.40
2022-08-07T03:44:42.709Z,45.30
2022-08-07T03:47:16.586Z,45.50
2022-08-07T03:49:52.148Z,45.40
2022-08-07T03:52:26.942Z,45.60
2022-08-07T03:54:57.402Z,45.90
2022-08-07T03:58:35.250Z,46.00
2022-08-07T04:00:29.389Z,46.20
2022-08-07T04:03:04.012Z,46.40
2022-08-07T04:05:41.056Z,46.20
2022-08-07T04:08:12.391Z,46.40
2022-08-07T04:10:42.191Z,46.50
2022-08-07T04:13:15.518Z,46.60
2022-08-07T04:15:45.929Z,46.80
2022-08-07T04:18:59.027Z,46.90
2022-08-07T04:21:07.427Z,47.00
2022-08-07T04:23:43.275Z,47.20
2022-08-07T04:26:28.566Z,47.50
2022-08-07T04:29:00.336Z,47.90
2022-08-07T04:31:38.915Z,48.50
2022-08-07T04:34:24.238Z,48.60
2022-08-07T04:36:55.867Z,48.70
2022-08-07T04:39:26.286Z,48.70
2022-08-07T04:41:54.799Z,48.70
2022-08-07T04:44:23.454Z,48.90
2022-08-07T04:47:04.634Z,49.00
2022-08-07T04:49:47.321Z,49.40
2022-08-07T04:52:34.470Z,49.30
2022-08-07T04:55:15.335Z,49.40
2022-08-07T04:58:11.835Z,49.40
2022-08-07T05:00:57.024Z,49.30
2022-08-07T05:03:59.825Z,49.20
2022-08-07T05:06:23.614Z,48.30
2022-08-07T05:09:03.619Z,48.80
2022-08-07T05:11:57.243Z,49.70
2022-08-07T05:14:52.167Z,49.20
2022-08-07T05:17:51.805Z,49.10
2022-08-07T05:20:12.896Z,49.00
2022-08-07T05:22:44.317Z,49.00
2022-08-07T05:25:26.296Z,49.50
2022-08-07T05:28:19.872Z,48.70
2022-08-07T05:30:50.071Z,48.60
2022-08-07T05:33:21.723Z,48.50
2022-08-07T05:35:52.368Z,48.50
2022-08-07T05:39:00.580Z,48.60
2022-08-07T05:41:14.076Z,48.70
2022-08-07T05:44:08.136Z,48.60
2022-08-07T05:46:37.616Z,48.40
2022-08-07T05:49:12.145Z,48.10
2022-08-07T05:51:46.244Z,48.10
2022-08-07T05:54:31.163Z,48.20
2022-08-07T05:57:05.185Z,48.10
2022-08-07T05:59:39.036Z,48.00
2022-08-07T06:02:29.080Z,47.70
2022-08-07T06:05:03.406Z,47.60
2022-08-07T06:08:13.137Z,47.60
2022-08-07T06:10:23.050Z,47.70
2022-08-07T06:12:51.854Z,47.50
2022-08-07T06:15:21.038Z,47.50
2022-08-07T06:17:53.518Z,47.20
2022-08-07T06:20:32.129Z,47.10
2022-08-07T06:23:46.826Z,47.00
2022-08-07T06:26:03.426Z,46.80
2022-08-07T06:28:32.327Z,46.60
2022-08-07T06:31:01.570Z,46.60
2022-08-07T06:33:33.186Z,46.60
2022-08-07T06:36:13.451Z,46.60
2022-08-07T06:38:59.662Z,46.10
2022-08-07T06:42:01.819Z,46.00
2022-08-07T06:44:27.139Z,45.90
2022-08-07T06:47:10.188Z,45.70
2022-08-07T06:49:51.086Z,45.30
2022-08-07T06:52:31.354Z,45.20
2022-08-07T06:55:33.713Z,44.80
2022-08-07T06:58:00.357Z,44.80
2022-08-07T07:00:31.560Z,44.30
2022-08-07T07:03:08.823Z,44.20
2022-08-07T07:06:04.150Z,43.90
2022-08-07T07:08:29.785Z,43.90
2022-08-07T07:11:01.252Z,43.80
2022-08-07T07:13:58.458Z,43.90
2022-08-07T07:16:33.465Z,43.40
2022-08-07T07:19:40.914Z,43.80
2022-08-07T07:22:04.885Z,43.30
2022-08-07T07:24:43.211Z,43.60
2022-08-07T07:27:35.502Z,43.00
2022-08-07T07:30:32.666Z,42.60
2022-08-07T07:33:07.832Z,42.50
2022-08-07T07:35:54.110Z,42.60
2022-08-07T07:38:26.535Z,42.20
2022-08-07T07:41:01.955Z,42.10
2022-08-07T07:44:14.901Z,41.90
2022-08-07T07:46:53.302Z,41.80
2022-08-07T07:50:35.012Z,41.80
2022-08-07T07:52:06.377Z,41.20
2022-08-07T07:54:36.523Z,40.90
2022-08-07T07:57:06.414Z,41.50
2022-08-07T07:59:51.613Z,40.60
2022-08-07T08:02:22.729Z,39.80
2022-08-07T08:05:14.512Z,39.60
2022-08-07T08:07:59.942Z,39.40
2022-08-07T08:10:38.068Z,38.90
2022-08-07T08:13:10.518Z,39.10
2022-08-07T08:15:58.526Z,38.80
2022-08-07T08:18:29.292Z,38.00
2022-08-07T08:21:01.337Z,37.90
2022-08-07T08:23:50.377Z,38.00
2022-08-07T08:26:38.047Z,37.80
2022-08-07T08:29:08.435Z,37.90
2022-08-07T08:32:17.495Z,37.90
2022-08-07T08:34:31.419Z,37.20
2022-08-07T08:37:01.042Z,36.80
2022-08-07T08:39:39.490Z,37.00
2022-08-07T08:42:26.964Z,36.80
2022-08-07T08:45:06.864Z,36.00
2022-08-07T08:47:52.553Z,35.60
2022-08-07T08:50:34.743Z,35.30
2022-08-07T08:53:16.576Z,35.70
2022-08-07T08:55:54.730Z,34.80
2022-08-07T08:58:36.912Z,34.40
2022-08-07T09:01:15.928Z,34.20
2022-08-07T09:03:57.328Z,33.70
2022-08-07T09:06:42.825Z,33.80
2022-08-07T09:09:30.098Z,34.60
2022-08-07T09:12:30.473Z,33.00
2022-08-07T09:16:22.613Z,33.60
2022-08-07T09:18:15.709Z,32.60
2022-08-07T09:21:01.077Z,32.30
2022-08-07T09:24:30.794Z,31.90
2022-08-07T09:26:31.881Z,34.30
2022-08-07T09:30:04.954Z,32.30
2022-08-07T09:32:03.366Z,31.60
2022-08-07T09:34:56.223Z,32.00
2022-08-07T09:37:48.342Z,30.70
2022-08-07T09:40:39.121Z,30.50
2022-08-07T09:43:20.512Z,30.80
2022-08-07T09:47:26.193Z,29.60
2022-08-07T09:50:00.760Z,30.30
2022-08-07T09:52:34.186Z,29.10
2022-08-07T09:55:29.935Z,28.70
2022-08-07T09:58:32.063Z,29.30
2022-08-07T10:01:52.349Z,28.40
2022-08-07T10:04:33.310Z,29.00
2022-08-07T10:07:31.772Z,28.60
2022-08-07T10:10:25.150Z,28.10
2022-08-07T10:13:54.697Z,27.70
2022-08-07T10:16:23.025Z,28.00
2022-08-07T10:19:26.868Z,26.70
2022-08-07T10:22:15.799Z,27.10
2022-08-07T10:24:57.371Z,27.00
2022-08-07T10:27:46.588Z,27.50
2022-08-07T10:30:18.991Z,27.00
2022-08-07T10:33:14.823Z,26.80
2022-08-07T10:36:10.830Z,26.60
2022-08-07T10:38:51.578Z,26.20
2022-08-07T10:41:51.307Z,26.40
2022-08-07T10:44:33.844Z,26.10
2022-08-07T10:47:16.729Z,25.70
2022-08-07T10:49:51.900Z,25.70
2022-08-07T10:52:31.880Z,25.80
2022-08-07T10:55:21.203Z,25.30
2022-08-07T10:58:14.783Z,25.30
2022-08-07T11:00:56.733Z,24.60
2022-08-07T11:03:37.190Z,24.50
2022-08-07T11:06:18.467Z,24.30
2022-08-07T11:08:55.752Z,24.40
2022-08-07T11:11:35.761Z,24.40
2022-08-07T11:14:43.826Z,24.60
2022-08-07T11:17:08.995Z,24.50
2022-08-07T11:19:46.931Z,24.40
2022-08-07T11:22:32.545Z,23.80
2022-08-07T11:25:14.845Z,23.10
2022-08-07T11:28:01.218Z,23.20
2022-08-07T11:30:41.690Z,23.30
2022-08-07T11:33:58.548Z,23.40
2022-08-07T11:36:25.094Z,23.20
2022-08-07T11:39:04.232Z,23.60
2022-08-07T11:42:00.299Z,23.80
2022-08-07T11:44:52.658Z,24.10
2022-08-07T11:47:56.516Z,23.80
2022-08-07T11:50:57.274Z,23.20
2022-08-07T11:53:43.324Z,23.60
2022-08-07T11:56:40.239Z,22.80
2022-08-07T12:00:10.083Z,22.70
2022-08-07T12:02:30.803Z,22.80
2022-08-07T12:05:15.191Z,23.30
2022-08-07T12:08:03.804Z,23.50
2022-08-07T12:10:42.206Z,23.90
2022-08-07T12:13:18.767Z,23.90
2022-08-07T12:16:08.966Z,23.20
2022-08-07T12:18:45.586Z,23.50
2022-08-07T12:21:55.739Z,23.00
2022-08-07T12:24:37.497Z,22.40
2022-08-07T12:27:16.223Z,22.50
2022-08-07T12:29:53.075Z,22.90
2022-08-07T12:32:32.055Z,22.20
2022-08-07T12:35:05.698Z,22.10
2022-08-07T12:38:09.467Z,22.50
2022-08-07T12:40:48.851Z,22.20
2022-08-07T12:44:04.354Z,21.90
2022-08-07T12:46:32.387Z,21.90
2022-08-07T12:49:25.625Z,22.40
2022-08-07T12:52:14.501Z,22.40
2022-08-07T12:54:57.319Z,22.10
2022-08-07T12:58:01.141Z,22.00
2022-08-07T13:00:41.766Z,21.70
2022-08-07T13:04:02.293Z,21.90
2022-08-07T13:07:01.187Z,21.70
2022-08-07T13:10:21.366Z,22.30
2022-08-07T13:12:39.000Z,21.80
2022-08-07T13:15:23.672Z,21.80
2022-08-07T13:18:26.262Z,21.60
2022-08-07T13:21:02.828Z,21.50
2022-08-07T13:24:04.287Z,21.70
2022-08-07T13:26:36.562Z,21.50
2022-08-07T13:29:13.693Z,22.00
2022-08-07T13:31:57.549Z,21.70
2022-08-07T13:34:36.654Z,21.80
2022-08-07T13:37:19.914Z,21.60
2022-08-07T13:40:36.340Z,21.60
2022-08-07T13:42:51.481Z,21.90
2022-08-07T13:46:11.254Z,21.50
2022-08-07T13:48:27.696Z,21.90
2022-08-07T13:51:26.870Z,21.60
2022-08-07T13:54:01.022Z,21.20
2022-08-07T13:56:36.149Z,21.10
2022-08-07T13:59:13.582Z,21.40
2022-08-07T14:02:04.069Z,20.90
2022-08-07T14:04:48.888Z,21.10
2022-08-07T14:07:22.800Z,22.00
2022-08-07T14:10:12.266Z,21.60
2022-08-07T14:12:54.861Z,21.30
2022-08-07T14:15:31.924Z,22.30
2022-08-07T14:18:27.941Z,21.80
2022-08-07T14:21:07.962Z,21.50
2022-08-07T14:24:00.369Z,20.90
2022-08-07T14:26:33.533Z,21.20
2022-08-07T14:29:08.798Z,20.70
2022-08-07T14:31:57.951Z,20.70
2022-08-07T14:34:32.235Z,20.70
2022-08-07T14:37:04.327Z,20.90
2022-08-07T14:40:15.518Z,21.60
2022-08-07T14:42:32.281Z,21.50
2022-08-07T14:45:21.612Z,21.40
2022-08-07T14:47:52.936Z,21.70
2022-08-07T14:50:37.546Z,21.30
2022-08-07T14:53:09.797Z,21.30
2022-08-07T14:55:56.260Z,21.00
2022-08-07T14:58:32.776Z,21.10
2022-08-07T15:01:21.398Z,20.70
2022-08-07T15:06:47.875Z,20.50
2022-08-07T15:09:57.862Z,20.30
2022-08-07T15:12:26.113Z,20.50
2022-08-07T15:15:07.662Z,20.60
2022-08-07T15:17:56.057Z,20.60
2022-08-07T15:20:33.926Z,20.80
2022-08-07T15:25:16.103Z,21.20
2022-08-07T15:26:21.240Z,21.10
2022-08-07T15:30:03.574Z,21.30
2022-08-07T15:31:57.809Z,21.10
2022-08-07T15:34:26.940Z,21.40
2022-08-07T15:37:04.421Z,21.80
2022-08-07T15:39:56.433Z,21.50
2022-08-07T15:42:56.303Z,21.80
2022-08-07T15:48:32.587Z,21.70
2022-08-07T15:51:08.542Z,21.40
2022-08-07T15:53:53.137Z,22.10
2022-08-07T15:56:33.271Z,21.30
2022-08-07T15:59:05.701Z,22.00
2022-08-07T16:01:38.980Z,21.30
2022-08-07T16:04:14.521Z,21.30
2022-08-07T16:06:58.884Z,20.90
2022-08-07T16:09:41.864Z,21.00
2022-08-07T16:12:37.922Z,21.00
2022-08-07T16:15:54.541Z,21.10
2022-08-07T16:18:49.614Z,21.20
2022-08-07T16:21:53.735Z,21.50
2022-08-07T16:24:34.201Z,21.70
2022-08-07T16:27:18.096Z,21.90
2022-08-07T16:30:31.566Z,21.60
2022-08-07T16:34:01.991Z,21.60
2022-08-07T16:36:20.341Z,21.60
2022-08-07T16:39:20.873Z,22.40
2022-08-07T16:42:29.697Z,22.00
2022-08-07T16:49:04.388Z,22.00
2022-08-07T16:52:01.789Z,22.10
2022-08-07T16:54:55.009Z,22.20
2022-08-07T16:58:02.781Z,22.00
2022-08-07T17:00:31.950Z,22.00
2022-08-07T17:03:18.746Z,22.30
2022-08-07T17:06:29.649Z,22.40
2022-08-07T17:09:09.140Z,22.70
2022-08-07T17:12:04.090Z,23.20
2022-08-07T17:14:49.641Z,22.60
2022-08-07T17:17:46.794Z,23.50
2022-08-07T17:20:30.109Z,23.20
2022-08-07T17:23:03.895Z,23.20
2022-08-07T17:25:54.557Z,23.10
2022-08-07T17:28:32.455Z,22.90
2022-08-07T17:31:15.929Z,23.00
2022-08-07T17:34:32.875Z,23.90
2022-08-07T17:36:57.830Z,23.60
2022-08-07T17:39:58.878Z,23.40
2022-08-07T17:42:57.981Z,23.20
2022-08-07T17:45:32.142Z,23.40
2022-08-07T17:48:11.126Z,24.00
2022-08-07T17:50:54.334Z,23.70
2022-08-07T17:54:00.983Z,23.50
2022-08-07T17:56:28.918Z,23.70
2022-08-07T17:59:02.717Z,23.60
2022-08-07T18:01:40.515Z,23.70
2022-08-07T18:04:24.746Z,24.00
2022-08-07T18:07:21.080Z,24.00
2022-08-07T18:10:06.034Z,24.50
2022-08-07T18:12:49.678Z,24.30
2022-08-07T18:15:33.078Z,24.30
2022-08-07T18:18:45.479Z,24.30
2022-08-07T18:21:30.673Z,24.40
2022-08-07T18:24:08.969Z,24.50
2022-08-07T18:27:00.679Z,24.60
2022-08-07T18:30:04.685Z,24.90
2022-08-07T18:33:23.212Z,24.90
2022-08-07T18:35:57.354Z,25.20
2022-08-07T18:38:58.481Z,24.70
2022-08-07T18:41:45.074Z,25.40
2022-08-07T18:45:39.893Z,25.40
2022-08-07T18:47:45.297Z,25.40
2022-08-07T18:50:46.438Z,25.40
2022-08-07T18:53:39.481Z,25.50
2022-08-07T18:56:19.408Z,25.50
2022-08-07T18:59:47.457Z,25.70
2022-08-07T19:02:32.725Z,25.80
2022-08-07T19:05:15.474Z,25.80
2022-08-07T19:07:59.084Z,25.80
2022-08-07T19:10:51.360Z,26.00
2022-08-07T19:13:27.417Z,25.90
2022-08-07T19:17:00.734Z,26.00
2022-08-07T19:19:01.181Z,26.10
2022-08-07T19:21:45.057Z,26.20
2022-08-07T19:24:30.855Z,26.30
2022-08-07T19:28:57.820Z,26.30
2022-08-07T19:31:06.452Z,26.40
2022-08-07T19:32:51.229Z,26.50
2022-08-07T19:35:22.460Z,26.60
2022-08-07T19:37:57.776Z,26.60
2022-08-07T19:40:31.022Z,26.80
2022-08-07T19:43:10.712Z,26.80
2022-08-07T19:46:07.486Z,26.90
2022-08-07T19:48:42.959Z,27.10
2022-08-07T19:51:20.567Z,27.30
2022-08-07T19:54:35.745Z,27.30
2022-08-07T19:57:50.932Z,27.40
2022-08-07T19:59:41.082Z,27.60
2022-08-07T20:02:19.852Z,28.20
2022-08-07T20:04:56.054Z,27.90
2022-08-07T20:07:45.955Z,28.10
2022-08-07T20:10:35.427Z,28.20
2022-08-07T20:13:22.943Z,28.30
2022-08-07T20:15:57.510Z,28.40
2022-08-07T20:18:32.537Z,28.50
2022-08-07T20:21:20.900Z,28.60
2022-08-07T20:23:54.251Z,28.80
2022-08-07T20:26:29.867Z,28.80
2022-08-07T20:29:46.691Z,29.00
2022-08-07T20:32:02.341Z,29.10
2022-08-07T20:34:50.320Z,29.20
2022-08-07T20:37:29.259Z,29.40
2022-08-07T20:40:03.987Z,29.60
2022-08-07T20:42:35.226Z,29.50
2022-08-07T20:45:33.456Z,29.60
2022-08-07T20:47:58.633Z,29.80
2022-08-07T20:50:30.549Z,30.00
2022-08-07T20:53:00.864Z,30.00
2022-08-07T20:55:32.292Z,30.10
2022-08-07T20:58:15.215Z,30.20
2022-08-07T21:00:57.754Z,30.30
2022-08-07T21:03:27.741Z,30.60
2022-08-07T21:06:00.870Z,30.40
2022-08-07T21:08:37.962Z,30.70
2022-08-07T21:11:12.410Z,30.80
2022-08-07T21:14:29.603Z,30.70
2022-08-07T21:16:56.608Z,30.70
2022-08-07T21:19:32.475Z,30.80
2022-08-07T21:22:20.210Z,30.70
2022-08-07T21:25:12.300Z,30.70
2022-08-07T21:27:53.741Z,31.10
2022-08-07T21:30:36.036Z,31.00
2022-08-07T21:33:13.714Z,31.00
2022-08-07T21:36:05.352Z,31.20
2022-08-07T21:38:45.730Z,31.10
2022-08-07T21:41:27.959Z,31.20
2022-08-07T21:44:14.722Z,31.20
2022-08-07T21:47:17.159Z,31.10
2022-08-07T21:50:02.380Z,31.20
2022-08-07T21:52:45.124Z,31.20
2022-08-07T21:55:28.369Z,31.20
2022-08-07T21:58:07.291Z,31.30
2022-08-07T22:00:39.893Z,31.40
2022-08-07T22:03:17.080Z,31.50
2022-08-07T22:05:52.623Z,31.70
2022-08-07T22:08:24.762Z,31.70
2022-08-07T22:10:59.082Z,31.70
2022-08-07T22:13:50.906Z,31.80
2022-08-07T22:16:44.258Z,32.00
2022-08-07T22:19:23.771Z,32.10
2022-08-07T22:22:17.645Z,32.20
2022-08-07T22:24:57.895Z,32.20
2022-08-07T22:27:34.235Z,32.40
2022-08-07T22:30:26.366Z,32.60
2022-08-07T22:33:04.936Z,32.60
2022-08-07T22:35:43.104Z,32.90
2022-08-07T22:38:24.156Z,32.90
2022-08-07T22:40:59.988Z,33.00
2022-08-07T22:43:35.697Z,33.10
2022-08-07T22:47:02.507Z,33.20
2022-08-07T22:49:39.467Z,33.40
2022-08-07T22:52:45.915Z,33.40
2022-08-07T22:55:43.950Z,33.60
2022-08-07T22:58:42.830Z,33.50
2022-08-07T23:01:54.012Z,33.70
2022-08-07T23:04:58.630Z,33.50
2022-08-07T23:07:47.913Z,33.80
2022-08-07T23:10:38.129Z,33.80
2022-08-07T23:13:29.034Z,33.90
2022-08-07T23:16:46.888Z,33.80
2022-08-07T23:19:16.661Z,33.80
2022-08-07T23:21:57.391Z,34.10
2022-08-07T23:24:45.607Z,34.90
2022-08-07T23:27:34.500Z,34.60
2022-08-07T23:30:37.498Z,35.00
2022-08-07T23:34:36.922Z,35.10
2022-08-07T23:36:17.467Z,35.30
2022-08-07T23:39:08.341Z,35.60
2022-08-07T23:42:04.694Z,35.70
2022-08-07T23:44:54.066Z,36.10
2022-08-07T23:47:46.588Z,36.20
2022-08-07T23:50:30.263Z,36.50
2022-08-07T23:53:15.317Z,36.50
2022-08-07T23:55:57.016Z,36.60
2022-08-07T23:58:38.795Z,36.80
